sensor_id;sensor_type;location;lat;lon;timestamp;pressure;altitude;pressure_sealevel;temperature;humidity
29247;BME280;16272;48.188;9.964;2023-01-25T00:01:48;97197.56;;;1.57;85.08
29247;BME280;16272;48.188;9.964;2023-01-25T00:04:13;97191.72;;;1.50;85.25
29247;BME280;16272;48.188;9.964;2023-01-25T00:06:39;97194.75;;;1.61;84.25
29247;BME280;16272;48.188;9.964;2023-01-25T00:09:04;97193.31;;;1.54;85.03
29247;BME280;16272;48.188;9.964;2023-01-25T00:11:30;97196.09;;;1.72;83.96
29247;BME280;16272;48.188;9.964;2023-01-25T00:13:55;97183.25;;;1.43;84.59
29247;BME280;16272;48.188;9.964;2023-01-25T00:16:22;97180.41;;;1.27;84.80
29247;BME280;16272;48.188;9.964;2023-01-25T00:18:48;97189.28;;;1.23;86.06
29247;BME280;16272;48.188;9.964;2023-01-25T00:21:19;97193.31;;;1.10;87.13
29247;BME280;16272;48.188;9.964;2023-01-25T00:23:45;97187.94;;;1.13;86.49
29247;BME280;16272;48.188;9.964;2023-01-25T00:26:11;97203.31;;;1.44;84.79
29247;BME280;16272;48.188;9.964;2023-01-25T00:28:36;97184.19;;;1.20;85.43
29247;BME280;16272;48.188;9.964;2023-01-25T00:31:03;97183.13;;;1.02;85.60
29247;BME280;16272;48.188;9.964;2023-01-25T00:33:34;97187.63;;;0.99;85.88
29247;BME280;16272;48.188;9.964;2023-01-25T00:39:00;97178.66;;;1.28;85.07
29247;BME280;16272;48.188;9.964;2023-01-25T00:41:26;97180.50;;;1.24;84.85
29247;BME280;16272;48.188;9.964;2023-01-25T00:43:51;97181.28;;;1.28;84.50
29247;BME280;16272;48.188;9.964;2023-01-25T00:46:18;97183.56;;;1.36;84.40
29247;BME280;16272;48.188;9.964;2023-01-25T00:48:43;97182.97;;;1.51;84.50
29247;BME280;16272;48.188;9.964;2023-01-25T00:51:09;97172.50;;;1.51;84.05
29247;BME280;16272;48.188;9.964;2023-01-25T00:53:35;97175.28;;;1.02;85.80
29247;BME280;16272;48.188;9.964;2023-01-25T00:56:00;97173.31;;;1.29;86.33
29247;BME280;16272;48.188;9.964;2023-01-25T00:58:26;97170.00;;;1.04;86.95
29247;BME280;16272;48.188;9.964;2023-01-25T01:00:53;97170.44;;;1.15;86.28
29247;BME280;16272;48.188;9.964;2023-01-25T01:03:18;97176.09;;;0.81;87.14
29247;BME280;16272;48.188;9.964;2023-01-25T01:05:44;97172.94;;;0.95;87.11
29247;BME280;16272;48.188;9.964;2023-01-25T01:08:10;97175.22;;;1.04;87.30
29247;BME280;16272;48.188;9.964;2023-01-25T01:10:35;97174.28;;;1.05;86.24
29247;BME280;16272;48.188;9.964;2023-01-25T01:13:01;97165.19;;;1.15;85.98
29247;BME280;16272;48.188;9.964;2023-01-25T01:15:26;97166.22;;;1.33;86.00
29247;BME280;16272;48.188;9.964;2023-01-25T01:17:51;97176.63;;;1.35;84.80
29247;BME280;16272;48.188;9.964;2023-01-25T01:20:16;97177.22;;;1.19;85.85
29247;BME280;16272;48.188;9.964;2023-01-25T01:22:42;97166.91;;;1.59;84.14
29247;BME280;16272;48.188;9.964;2023-01-25T01:25:07;97176.13;;;1.47;84.30
29247;BME280;16272;48.188;9.964;2023-01-25T01:27:33;97177.31;;;1.40;84.17
29247;BME280;16272;48.188;9.964;2023-01-25T01:29:58;97177.09;;;1.22;85.67
29247;BME280;16272;48.188;9.964;2023-01-25T01:32:23;97172.38;;;1.10;85.62
29247;BME280;16272;48.188;9.964;2023-01-25T01:34:49;97174.31;;;1.27;84.61
29247;BME280;16272;48.188;9.964;2023-01-25T01:37:14;97170.84;;;1.49;84.36
29247;BME280;16272;48.188;9.964;2023-01-25T01:39:39;97173.50;;;1.03;85.64
29247;BME280;16272;48.188;9.964;2023-01-25T01:42:04;97171.88;;;1.22;85.67
29247;BME280;16272;48.188;9.964;2023-01-25T01:44:47;97161.09;;;1.08;86.40
29247;BME280;16272;48.188;9.964;2023-01-25T01:47:49;97164.31;;;0.93;85.77
29247;BME280;16272;48.188;9.964;2023-01-25T01:50:23;97166.47;;;0.81;88.12
29247;BME280;16272;48.188;9.964;2023-01-25T01:52:49;97166.88;;;1.16;85.76
29247;BME280;16272;48.188;9.964;2023-01-25T01:55:19;97164.88;;;1.01;86.72
29247;BME280;16272;48.188;9.964;2023-01-25T01:57:51;97162.25;;;1.45;84.01
29247;BME280;16272;48.188;9.964;2023-01-25T02:00:27;97173.06;;;0.91;85.98
29247;BME280;16272;48.188;9.964;2023-01-25T02:02:54;97170.16;;;1.21;85.88
29247;BME280;16272;48.188;9.964;2023-01-25T02:05:31;97160.34;;;0.82;86.57
29247;BME280;16272;48.188;9.964;2023-01-25T02:08:02;97171.75;;;1.03;85.46
29247;BME280;16272;48.188;9.964;2023-01-25T02:10:29;97170.44;;;1.15;84.72
29247;BME280;16272;48.188;9.964;2023-01-25T02:12:56;97171.09;;;1.20;86.26
29247;BME280;16272;48.188;9.964;2023-01-25T02:15:22;97166.16;;;1.13;85.14
29247;BME280;16272;48.188;9.964;2023-01-25T02:17:52;97166.09;;;1.14;85.94
29247;BME280;16272;48.188;9.964;2023-01-25T02:20:33;97154.97;;;1.09;85.75
29247;BME280;16272;48.188;9.964;2023-01-25T02:25:48;97159.34;;;1.08;85.87
29247;BME280;16272;48.188;9.964;2023-01-25T02:28:23;97151.06;;;1.41;84.93
29247;BME280;16272;48.188;9.964;2023-01-25T02:30:51;97152.75;;;0.98;88.09
29247;BME280;16272;48.188;9.964;2023-01-25T02:33:16;97156.28;;;1.19;86.01
29247;BME280;16272;48.188;9.964;2023-01-25T02:35:46;97160.19;;;1.09;85.56
29247;BME280;16272;48.188;9.964;2023-01-25T02:38:14;97147.38;;;1.25;85.78
29247;BME280;16272;48.188;9.964;2023-01-25T02:40:47;97152.22;;;1.12;86.07
29247;BME280;16272;48.188;9.964;2023-01-25T02:43:14;97152.34;;;1.09;87.11
29247;BME280;16272;48.188;9.964;2023-01-25T02:45:46;97153.09;;;1.35;84.93
29247;BME280;16272;48.188;9.964;2023-01-25T02:48:13;97148.13;;;1.49;83.59
29247;BME280;16272;48.188;9.964;2023-01-25T02:50:39;97143.41;;;1.37;84.87
29247;BME280;16272;48.188;9.964;2023-01-25T02:53:04;97146.00;;;1.37;84.89
29247;BME280;16272;48.188;9.964;2023-01-25T02:55:29;97139.38;;;1.06;85.81
29247;BME280;16272;48.188;9.964;2023-01-25T02:57:55;97150.22;;;1.19;85.31
29247;BME280;16272;48.188;9.964;2023-01-25T03:00:20;97140.59;;;1.19;85.34
29247;BME280;16272;48.188;9.964;2023-01-25T03:02:46;97143.28;;;0.96;86.46
29247;BME280;16272;48.188;9.964;2023-01-25T03:05:11;97142.53;;;1.14;86.47
29247;BME280;16272;48.188;9.964;2023-01-25T03:07:36;97128.69;;;1.12;86.99
29247;BME280;16272;48.188;9.964;2023-01-25T03:10:02;97133.69;;;1.39;85.46
29247;BME280;16272;48.188;9.964;2023-01-25T03:12:27;97139.59;;;1.44;84.67
29247;BME280;16272;48.188;9.964;2023-01-25T03:14:53;97127.63;;;1.59;84.25
29247;BME280;16272;48.188;9.964;2023-01-25T03:17:18;97123.16;;;1.40;84.72
29247;BME280;16272;48.188;9.964;2023-01-25T03:19:43;97131.31;;;1.33;84.37
29247;BME280;16272;48.188;9.964;2023-01-25T03:22:08;97127.44;;;1.43;84.65
29247;BME280;16272;48.188;9.964;2023-01-25T03:24:35;97122.50;;;1.35;85.33
29247;BME280;16272;48.188;9.964;2023-01-25T03:27:00;97118.44;;;1.28;85.34
29247;BME280;16272;48.188;9.964;2023-01-25T03:29:34;97122.38;;;1.16;86.22
29247;BME280;16272;48.188;9.964;2023-01-25T03:32:00;97118.38;;;1.07;86.28
29247;BME280;16272;48.188;9.964;2023-01-25T03:34:25;97117.53;;;1.29;85.40
29247;BME280;16272;48.188;9.964;2023-01-25T03:36:51;97119.06;;;1.13;86.43
29247;BME280;16272;48.188;9.964;2023-01-25T03:39:16;97133.03;;;1.34;84.45
29247;BME280;16272;48.188;9.964;2023-01-25T03:41:41;97129.22;;;1.20;86.26
29247;BME280;16272;48.188;9.964;2023-01-25T03:44:07;97123.66;;;1.50;84.72
29247;BME280;16272;48.188;9.964;2023-01-25T03:46:36;97121.63;;;1.57;83.34
29247;BME280;16272;48.188;9.964;2023-01-25T03:49:01;97120.72;;;1.58;84.71
29247;BME280;16272;48.188;9.964;2023-01-25T03:51:26;97123.91;;;1.44;84.31
29247;BME280;16272;48.188;9.964;2023-01-25T03:53:52;97124.19;;;0.94;85.85
29247;BME280;16272;48.188;9.964;2023-01-25T03:56:17;97123.31;;;1.15;86.99
29247;BME280;16272;48.188;9.964;2023-01-25T03:58:44;97116.00;;;1.23;86.42
29247;BME280;16272;48.188;9.964;2023-01-25T04:01:10;97112.97;;;0.90;86.80
29247;BME280;16272;48.188;9.964;2023-01-25T04:03:35;97110.91;;;1.41;85.25
29247;BME280;16272;48.188;9.964;2023-01-25T04:06:01;97114.25;;;1.24;85.93
29247;BME280;16272;48.188;9.964;2023-01-25T04:08:27;97110.38;;;1.55;83.67
29247;BME280;16272;48.188;9.964;2023-01-25T04:10:55;97110.38;;;1.33;84.53
29247;BME280;16272;48.188;9.964;2023-01-25T04:13:21;97103.72;;;1.25;84.93
29247;BME280;16272;48.188;9.964;2023-01-25T04:15:47;97104.88;;;1.18;85.58
29247;BME280;16272;48.188;9.964;2023-01-25T04:18:12;97095.56;;;1.54;83.99
29247;BME280;16272;48.188;9.964;2023-01-25T04:20:38;97104.13;;;1.15;86.40
29247;BME280;16272;48.188;9.964;2023-01-25T04:23:03;97095.94;;;1.02;87.74
29247;BME280;16272;48.188;9.964;2023-01-25T04:25:31;97093.50;;;1.19;85.31
29247;BME280;16272;48.188;9.964;2023-01-25T04:27:56;97088.09;;;1.02;87.32
29247;BME280;16272;48.188;9.964;2023-01-25T04:30:21;97090.38;;;1.09;85.58
29247;BME280;16272;48.188;9.964;2023-01-25T04:32:47;97074.84;;;1.27;86.31
29247;BME280;16272;48.188;9.964;2023-01-25T04:35:12;97082.44;;;0.90;87.00
29247;BME280;16272;48.188;9.964;2023-01-25T04:37:37;97086.84;;;0.88;88.03
29247;BME280;16272;48.188;9.964;2023-01-25T04:40:03;97069.53;;;0.86;87.94
29247;BME280;16272;48.188;9.964;2023-01-25T04:42:29;97088.81;;;1.05;87.77
29247;BME280;16272;48.188;9.964;2023-01-25T04:44:54;97078.19;;;1.10;86.48
29247;BME280;16272;48.188;9.964;2023-01-25T04:47:20;97080.84;;;0.86;87.95
29247;BME280;16272;48.188;9.964;2023-01-25T04:49:45;97083.63;;;1.26;86.21
29247;BME280;16272;48.188;9.964;2023-01-25T04:52:10;97082.53;;;1.32;86.04
29247;BME280;16272;48.188;9.964;2023-01-25T04:54:35;97073.50;;;1.39;84.95
29247;BME280;16272;48.188;9.964;2023-01-25T04:57:01;97076.09;;;1.18;85.61
29247;BME280;16272;48.188;9.964;2023-01-25T04:59:26;97065.94;;;0.88;87.49
29247;BME280;16272;48.188;9.964;2023-01-25T05:01:51;97063.75;;;1.42;84.81
29247;BME280;16272;48.188;9.964;2023-01-25T05:04:17;97059.75;;;1.34;83.98
29247;BME280;16272;48.188;9.964;2023-01-25T05:06:42;97061.84;;;1.25;84.63
29247;BME280;16272;48.188;9.964;2023-01-25T05:09:08;97061.06;;;1.44;84.98
29247;BME280;16272;48.188;9.964;2023-01-25T05:11:34;97063.97;;;1.16;86.84
29247;BME280;16272;48.188;9.964;2023-01-25T05:13:59;97066.16;;;1.47;85.10
29247;BME280;16272;48.188;9.964;2023-01-25T05:16:24;97060.31;;;1.62;82.99
29247;BME280;16272;48.188;9.964;2023-01-25T05:18:50;97062.13;;;1.40;83.84
29247;BME280;16272;48.188;9.964;2023-01-25T05:21:15;97062.66;;;1.48;85.06
29247;BME280;16272;48.188;9.964;2023-01-25T05:23:59;97063.41;;;1.29;84.96
29247;BME280;16272;48.188;9.964;2023-01-25T05:26:24;97064.81;;;1.16;85.34
29247;BME280;16272;48.188;9.964;2023-01-25T05:29:26;97064.63;;;1.00;86.73
29247;BME280;16272;48.188;9.964;2023-01-25T05:31:52;97065.75;;;1.15;87.06
29247;BME280;16272;48.188;9.964;2023-01-25T05:34:17;97063.22;;;1.34;85.04
29247;BME280;16272;48.188;9.964;2023-01-25T05:36:42;97064.38;;;0.84;87.22
29247;BME280;16272;48.188;9.964;2023-01-25T05:39:08;97077.22;;;0.90;85.87
29247;BME280;16272;48.188;9.964;2023-01-25T05:41:33;97070.56;;;1.04;86.69
29247;BME280;16272;48.188;9.964;2023-01-25T05:43:59;97074.50;;;0.70;87.53
29247;BME280;16272;48.188;9.964;2023-01-25T05:46:26;97082.78;;;0.35;88.85
29247;BME280;16272;48.188;9.964;2023-01-25T05:48:51;97077.41;;;0.40;89.84
29247;BME280;16272;48.188;9.964;2023-01-25T05:51:16;97074.31;;;0.52;87.16
29247;BME280;16272;48.188;9.964;2023-01-25T05:53:42;97074.75;;;0.64;87.23
29247;BME280;16272;48.188;9.964;2023-01-25T05:56:08;97067.59;;;0.91;86.18
29247;BME280;16272;48.188;9.964;2023-01-25T05:58:34;97059.91;;;0.86;85.08
29247;BME280;16272;48.188;9.964;2023-01-25T06:01:04;97060.31;;;0.77;85.50
29247;BME280;16272;48.188;9.964;2023-01-25T06:03:30;97062.03;;;0.77;86.12
29247;BME280;16272;48.188;9.964;2023-01-25T06:05:56;97063.66;;;0.81;85.19
29247;BME280;16272;48.188;9.964;2023-01-25T06:08:21;97055.88;;;1.22;84.58
29247;BME280;16272;48.188;9.964;2023-01-25T06:10:47;97056.88;;;0.97;84.75
29247;BME280;16272;48.188;9.964;2023-01-25T06:13:12;97051.06;;;0.90;84.41
29247;BME280;16272;48.188;9.964;2023-01-25T06:15:37;97059.56;;;0.96;84.17
29247;BME280;16272;48.188;9.964;2023-01-25T06:18:03;97052.25;;;1.04;84.72
29247;BME280;16272;48.188;9.964;2023-01-25T06:20:28;97054.09;;;1.02;83.93
29247;BME280;16272;48.188;9.964;2023-01-25T06:22:53;97052.50;;;0.98;84.58
29247;BME280;16272;48.188;9.964;2023-01-25T06:25:18;97041.66;;;1.07;83.65
29247;BME280;16272;48.188;9.964;2023-01-25T06:27:44;97052.25;;;1.04;84.39
29247;BME280;16272;48.188;9.964;2023-01-25T06:30:09;97053.72;;;0.89;84.46
29247;BME280;16272;48.188;9.964;2023-01-25T06:32:35;97047.25;;;1.20;83.43
29247;BME280;16272;48.188;9.964;2023-01-25T06:35:00;97047.69;;;1.29;83.37
29247;BME280;16272;48.188;9.964;2023-01-25T06:37:26;97049.09;;;0.96;83.93
29247;BME280;16272;48.188;9.964;2023-01-25T06:39:51;97047.31;;;1.18;84.38
29247;BME280;16272;48.188;9.964;2023-01-25T06:42:17;97043.22;;;1.11;83.92
29247;BME280;16272;48.188;9.964;2023-01-25T06:44:42;97038.34;;;1.03;83.98
29247;BME280;16272;48.188;9.964;2023-01-25T06:47:08;97040.06;;;1.03;83.55
29247;BME280;16272;48.188;9.964;2023-01-25T06:49:33;97038.41;;;1.02;83.69
29247;BME280;16272;48.188;9.964;2023-01-25T06:51:58;97045.31;;;1.03;84.31
29247;BME280;16272;48.188;9.964;2023-01-25T06:54:25;97049.84;;;0.77;84.82
29247;BME280;16272;48.188;9.964;2023-01-25T06:56:51;97045.31;;;0.59;87.45
29247;BME280;16272;48.188;9.964;2023-01-25T06:59:16;97052.50;;;1.20;84.29
29247;BME280;16272;48.188;9.964;2023-01-25T07:01:42;97040.59;;;0.90;83.95
29247;BME280;16272;48.188;9.964;2023-01-25T07:04:08;97044.78;;;0.95;84.89
29247;BME280;16272;48.188;9.964;2023-01-25T07:06:35;97050.81;;;0.75;85.91
29247;BME280;16272;48.188;9.964;2023-01-25T07:09:06;97049.47;;;0.86;86.12
29247;BME280;16272;48.188;9.964;2023-01-25T07:11:31;97048.34;;;1.14;85.16
29247;BME280;16272;48.188;9.964;2023-01-25T07:13:57;97036.50;;;0.83;84.91
29247;BME280;16272;48.188;9.964;2023-01-25T07:16:22;97043.69;;;0.78;86.23
29247;BME280;16272;48.188;9.964;2023-01-25T07:18:47;97046.09;;;1.05;85.34
29247;BME280;16272;48.188;9.964;2023-01-25T07:21:15;97039.13;;;0.83;85.64
29247;BME280;16272;48.188;9.964;2023-01-25T07:23:40;97045.34;;;0.81;85.49
29247;BME280;16272;48.188;9.964;2023-01-25T07:26:14;97042.28;;;0.24;89.25
29247;BME280;16272;48.188;9.964;2023-01-25T07:28:40;97035.53;;;0.18;89.67
29247;BME280;16272;48.188;9.964;2023-01-25T07:31:06;97033.91;;;0.15;89.82
29247;BME280;16272;48.188;9.964;2023-01-25T07:33:32;97033.03;;;0.39;89.10
29247;BME280;16272;48.188;9.964;2023-01-25T07:36:01;97025.00;;;0.65;87.85
29247;BME280;16272;48.188;9.964;2023-01-25T07:38:27;97030.72;;;0.97;85.43
29247;BME280;16272;48.188;9.964;2023-01-25T07:40:52;97026.09;;;1.04;85.29
29247;BME280;16272;48.188;9.964;2023-01-25T07:43:18;97016.59;;;1.01;84.97
29247;BME280;16272;48.188;9.964;2023-01-25T07:45:44;97015.78;;;0.57;86.69
29247;BME280;16272;48.188;9.964;2023-01-25T07:48:14;97024.41;;;0.59;86.25
29247;BME280;16272;48.188;9.964;2023-01-25T07:50:39;97012.34;;;0.99;84.79
29247;BME280;16272;48.188;9.964;2023-01-25T07:53:06;97015.75;;;1.01;84.39
29247;BME280;16272;48.188;9.964;2023-01-25T07:55:31;97012.34;;;0.99;83.69
29247;BME280;16272;48.188;9.964;2023-01-25T07:57:57;97005.81;;;1.09;83.43
29247;BME280;16272;48.188;9.964;2023-01-25T08:00:22;97014.47;;;1.32;83.25
29247;BME280;16272;48.188;9.964;2023-01-25T08:02:51;97010.69;;;1.18;83.40
29247;BME280;16272;48.188;9.964;2023-01-25T08:05:17;97010.88;;;1.14;83.05
29247;BME280;16272;48.188;9.964;2023-01-25T08:07:44;97009.38;;;1.28;82.23
29247;BME280;16272;48.188;9.964;2023-01-25T08:10:10;97001.50;;;1.49;81.20
29247;BME280;16272;48.188;9.964;2023-01-25T08:12:35;97000.75;;;1.26;82.79
29247;BME280;16272;48.188;9.964;2023-01-25T08:15:00;97004.78;;;1.34;82.45
29247;BME280;16272;48.188;9.964;2023-01-25T08:17:26;97004.19;;;1.47;81.86
29247;BME280;16272;48.188;9.964;2023-01-25T08:19:56;96998.28;;;1.42;81.90
29247;BME280;16272;48.188;9.964;2023-01-25T08:22:22;96995.94;;;1.16;83.58
29247;BME280;16272;48.188;9.964;2023-01-25T08:24:48;96999.44;;;1.37;82.25
29247;BME280;16272;48.188;9.964;2023-01-25T08:27:14;96996.13;;;1.11;83.01
29247;BME280;16272;48.188;9.964;2023-01-25T08:29:40;96988.06;;;0.95;83.64
29247;BME280;16272;48.188;9.964;2023-01-25T08:32:06;96992.06;;;1.24;82.60
29247;BME280;16272;48.188;9.964;2023-01-25T08:34:32;96986.56;;;0.89;84.59
29247;BME280;16272;48.188;9.964;2023-01-25T08:36:58;96982.44;;;0.84;84.08
29247;BME280;16272;48.188;9.964;2023-01-25T08:39:23;96983.94;;;0.89;84.25
29247;BME280;16272;48.188;9.964;2023-01-25T08:41:48;96973.75;;;1.04;83.84
29247;BME280;16272;48.188;9.964;2023-01-25T08:44:14;96977.69;;;0.71;83.42
29247;BME280;16272;48.188;9.964;2023-01-25T08:46:39;96976.47;;;0.80;84.10
29247;BME280;16272;48.188;9.964;2023-01-25T08:49:04;96984.19;;;0.83;83.59
29247;BME280;16272;48.188;9.964;2023-01-25T08:51:31;96986.31;;;1.16;83.73
29247;BME280;16272;48.188;9.964;2023-01-25T08:54:07;96986.78;;;1.05;82.71
29247;BME280;16272;48.188;9.964;2023-01-25T08:56:40;96985.13;;;0.82;84.08
29247;BME280;16272;48.188;9.964;2023-01-25T08:59:09;96982.75;;;0.97;83.66
29247;BME280;16272;48.188;9.964;2023-01-25T09:01:35;96982.22;;;0.68;84.65
29247;BME280;16272;48.188;9.964;2023-01-25T09:04:01;96978.41;;;0.97;83.49
29247;BME280;16272;48.188;9.964;2023-01-25T09:06:26;96977.81;;;1.11;83.38
29247;BME280;16272;48.188;9.964;2023-01-25T09:08:52;96974.13;;;0.95;82.94
29247;BME280;16272;48.188;9.964;2023-01-25T09:11:20;96966.03;;;0.58;85.32
29247;BME280;16272;48.188;9.964;2023-01-25T09:13:46;96963.81;;;1.12;83.26
29247;BME280;16272;48.188;9.964;2023-01-25T09:16:19;96971.22;;;0.80;83.71
29247;BME280;16272;48.188;9.964;2023-01-25T09:18:52;96969.25;;;1.07;82.92
29247;BME280;16272;48.188;9.964;2023-01-25T09:21:18;96970.59;;;0.53;84.67
29247;BME280;16272;48.188;9.964;2023-01-25T09:23:46;96962.53;;;1.02;84.20
29247;BME280;16272;48.188;9.964;2023-01-25T09:26:13;96977.00;;;0.88;83.24
29247;BME280;16272;48.188;9.964;2023-01-25T09:28:40;96980.38;;;0.70;83.44
29247;BME280;16272;48.188;9.964;2023-01-25T09:31:06;96982.25;;;0.44;86.21
29247;BME280;16272;48.188;9.964;2023-01-25T09:33:37;96979.63;;;0.88;84.65
29247;BME280;16272;48.188;9.964;2023-01-25T09:36:03;96984.06;;;0.86;84.67
29247;BME280;16272;48.188;9.964;2023-01-25T09:38:29;96972.16;;;0.79;84.95
29247;BME280;16272;48.188;9.964;2023-01-25T09:46:21;96960.03;;;0.99;84.38
29247;BME280;16272;48.188;9.964;2023-01-25T09:49:02;96963.97;;;0.44;86.16
29247;BME280;16272;48.188;9.964;2023-01-25T09:54:27;96970.56;;;0.75;85.04
29247;BME280;16272;48.188;9.964;2023-01-25T09:56:54;96968.31;;;0.88;84.06
29247;BME280;16272;48.188;9.964;2023-01-25T09:59:23;96973.59;;;0.22;86.39
29247;BME280;16272;48.188;9.964;2023-01-25T10:01:56;96979.09;;;0.36;87.35
29247;BME280;16272;48.188;9.964;2023-01-25T10:04:25;96970.56;;;0.54;86.29
29247;BME280;16272;48.188;9.964;2023-01-25T10:06:55;96959.47;;;0.70;85.22
29247;BME280;16272;48.188;9.964;2023-01-25T10:09:39;96956.47;;;0.79;84.06
29247;BME280;16272;48.188;9.964;2023-01-25T10:12:17;96951.25;;;1.00;83.93
29247;BME280;16272;48.188;9.964;2023-01-25T10:14:43;96956.75;;;0.51;86.57
29247;BME280;16272;48.188;9.964;2023-01-25T10:20:12;96946.16;;;0.97;84.49
29247;BME280;16272;48.188;9.964;2023-01-25T10:22:47;96957.28;;;1.22;84.08
29247;BME280;16272;48.188;9.964;2023-01-25T10:25:27;96948.09;;;1.33;84.20
29247;BME280;16272;48.188;9.964;2023-01-25T10:30:48;96944.94;;;1.05;83.75
29247;BME280;16272;48.188;9.964;2023-01-25T10:33:19;96937.78;;;0.88;85.25
29247;BME280;16272;48.188;9.964;2023-01-25T10:35:46;96937.41;;;0.98;84.98
29247;BME280;16272;48.188;9.964;2023-01-25T10:38:45;96935.56;;;1.00;84.65
29247;BME280;16272;48.188;9.964;2023-01-25T10:41:17;96941.50;;;1.24;83.32
29247;BME280;16272;48.188;9.964;2023-01-25T10:43:44;96939.59;;;0.86;84.68
29247;BME280;16272;48.188;9.964;2023-01-25T10:46:21;96937.22;;;0.60;84.95
29247;BME280;16272;48.188;9.964;2023-01-25T10:48:47;96928.28;;;1.06;85.41
29247;BME280;16272;48.188;9.964;2023-01-25T10:51:31;96929.63;;;1.17;83.34
29247;BME280;16272;48.188;9.964;2023-01-25T10:54:04;96924.03;;;1.24;84.06
29247;BME280;16272;48.188;9.964;2023-01-25T10:56:32;96922.88;;;1.11;83.77
29247;BME280;16272;48.188;9.964;2023-01-25T10:59:26;96924.84;;;1.06;84.52
29247;BME280;16272;48.188;9.964;2023-01-25T11:01:53;96914.47;;;0.62;85.24
29247;BME280;16272;48.188;9.964;2023-01-25T11:04:34;96912.47;;;0.89;84.71
29247;BME280;16272;48.188;9.964;2023-01-25T11:07:02;96905.03;;;1.00;83.45
29247;BME280;16272;48.188;9.964;2023-01-25T11:09:39;96903.53;;;0.74;84.57
29247;BME280;16272;48.188;9.964;2023-01-25T11:12:17;96903.78;;;0.68;85.20
29247;BME280;16272;48.188;9.964;2023-01-25T11:14:43;96902.19;;;0.64;84.42
29247;BME280;16272;48.188;9.964;2023-01-25T11:17:27;96898.03;;;0.15;87.03
29247;BME280;16272;48.188;9.964;2023-01-25T11:20:20;96898.44;;;0.49;87.40
29247;BME280;16272;48.188;9.964;2023-01-25T11:22:54;96895.22;;;0.42;87.14
29247;BME280;16272;48.188;9.964;2023-01-25T11:25:31;96884.09;;;0.59;86.23
29247;BME280;16272;48.188;9.964;2023-01-25T11:30:38;96887.97;;;0.49;88.71
29247;BME280;16272;48.188;9.964;2023-01-25T11:33:09;96891.22;;;0.76;87.47
29247;BME280;16272;48.188;9.964;2023-01-25T11:35:39;96882.31;;;0.80;85.40
29247;BME280;16272;48.188;9.964;2023-01-25T11:38:14;96877.25;;;0.77;83.91
29247;BME280;16272;48.188;9.964;2023-01-25T11:40:48;96878.16;;;0.76;84.31
29247;BME280;16272;48.188;9.964;2023-01-25T11:46:11;96873.16;;;0.70;84.62
29247;BME280;16272;48.188;9.964;2023-01-25T11:57:05;96853.19;;;0.69;85.25
29247;BME280;16272;48.188;9.964;2023-01-25T11:59:51;96844.28;;;0.73;84.31
29247;BME280;16272;48.188;9.964;2023-01-25T12:05:34;96836.69;;;0.87;82.79
29247;BME280;16272;48.188;9.964;2023-01-25T12:10:47;96826.75;;;0.75;82.81
29247;BME280;16272;48.188;9.964;2023-01-25T12:13:23;96830.41;;;0.50;83.97
29247;BME280;16272;48.188;9.964;2023-01-25T12:18:54;96810.88;;;0.80;84.41
29247;BME280;16272;48.188;9.964;2023-01-25T12:26:57;96800.41;;;1.19;82.37
29247;BME280;16272;48.188;9.964;2023-01-25T12:29:38;96793.69;;;0.74;85.04
29247;BME280;16272;48.188;9.964;2023-01-25T12:32:12;96791.91;;;1.14;84.30
29247;BME280;16272;48.188;9.964;2023-01-25T12:34:46;96785.47;;;1.21;83.47
29247;BME280;16272;48.188;9.964;2023-01-25T12:37:29;96788.19;;;0.80;84.35
29247;BME280;16272;48.188;9.964;2023-01-25T12:40:11;96783.84;;;1.00;83.77
29247;BME280;16272;48.188;9.964;2023-01-25T12:42:46;96772.38;;;1.21;82.25
29247;BME280;16272;48.188;9.964;2023-01-25T12:45:18;96771.31;;;0.87;84.37
29247;BME280;16272;48.188;9.964;2023-01-25T12:47:55;96759.66;;;0.95;83.03
29247;BME280;16272;48.188;9.964;2023-01-25T12:50:37;96757.84;;;1.16;81.67
29247;BME280;16272;48.188;9.964;2023-01-25T12:53:19;96753.88;;;1.45;80.60
29247;BME280;16272;48.188;9.964;2023-01-25T12:55:47;96758.59;;;0.99;81.54
29247;BME280;16272;48.188;9.964;2023-01-25T12:58:23;96763.47;;;0.87;81.19
29247;BME280;16272;48.188;9.964;2023-01-25T13:01:20;96757.34;;;1.26;81.84
29247;BME280;16272;48.188;9.964;2023-01-25T13:09:06;96744.59;;;1.00;82.61
29247;BME280;16272;48.188;9.964;2023-01-25T13:11:42;96744.81;;;0.55;82.90
29247;BME280;16272;48.188;9.964;2023-01-25T13:16:44;96743.53;;;0.85;82.69
29247;BME280;16272;48.188;9.964;2023-01-25T13:19:41;96739.06;;;0.87;84.63
29247;BME280;16272;48.188;9.964;2023-01-25T13:22:09;96736.84;;;0.59;82.73
29247;BME280;16272;48.188;9.964;2023-01-25T13:27:27;96725.47;;;0.39;86.13
29247;BME280;16272;48.188;9.964;2023-01-25T13:32:51;96723.94;;;0.75;84.76
29247;BME280;16272;48.188;9.964;2023-01-25T13:35:32;96721.84;;;0.43;84.33
29247;BME280;16272;48.188;9.964;2023-01-25T13:38:45;96716.75;;;0.40;85.33
29247;BME280;16272;48.188;9.964;2023-01-25T13:41:01;96722.28;;;0.53;86.36
29247;BME280;16272;48.188;9.964;2023-01-25T13:43:27;96718.41;;;0.62;84.64
29247;BME280;16272;48.188;9.964;2023-01-25T13:45:52;96723.59;;;0.82;82.71
29247;BME280;16272;48.188;9.964;2023-01-25T13:48:25;96711.03;;;0.90;83.76
29247;BME280;16272;48.188;9.964;2023-01-25T13:51:05;96721.56;;;0.49;84.80
29247;BME280;16272;48.188;9.964;2023-01-25T13:53:33;96707.16;;;0.60;86.19
29247;BME280;16272;48.188;9.964;2023-01-25T13:56:00;96714.25;;;0.77;84.81
29247;BME280;16272;48.188;9.964;2023-01-25T13:58:33;96708.19;;;0.76;83.38
29247;BME280;16272;48.188;9.964;2023-01-25T14:01:04;96700.63;;;0.89;82.84
29247;BME280;16272;48.188;9.964;2023-01-25T14:03:34;96698.28;;;0.83;83.12
29247;BME280;16272;48.188;9.964;2023-01-25T14:06:01;96691.66;;;1.14;82.33
29247;BME280;16272;48.188;9.964;2023-01-25T14:08:29;96686.09;;;1.39;80.75
29247;BME280;16272;48.188;9.964;2023-01-25T14:10:56;96692.91;;;1.05;81.62
29247;BME280;16272;48.188;9.964;2023-01-25T14:13:22;96691.72;;;0.93;81.82
29247;BME280;16272;48.188;9.964;2023-01-25T14:16:11;96691.00;;;0.89;82.26
29247;BME280;16272;48.188;9.964;2023-01-25T14:18:36;96684.16;;;1.06;82.11
29247;BME280;16272;48.188;9.964;2023-01-25T14:21:16;96689.69;;;0.81;82.11